Time;durP1;ratioP1;P1;durP2;ratioP2;P2;SDS_P1;SDS_P2;PMS_P1;PMS_P2;Temp;Humidity;BMP_temperature;BMP_pressure;BME280_temperature;BME280_humidity;BME280_pressure;Samples;Min_cycle;Max_cycle;Signal;HPM_P1;HPM_P2
2023/01/22 00:02:06;;;;;;;5.07;4.60;;;;;;;;;;4944265;28;20710;-88
2023/01/22 00:04:31;;;;;;;4.97;4.57;;;;;;;;;;4943757;28;20303;-87
2023/01/22 00:06:59;;;;;;;4.83;4.33;;;;;;;;;;4965187;28;20234;-87
2023/01/22 00:09:29;;;;;;;4.17;3.77;;;;;;;;;;4971064;28;20844;-88
2023/01/22 00:11:55;;;;;;;5.70;5.20;;;;;;;;;;4929736;28;20238;-88
2023/01/22 00:14:22;;;;;;;5.27;4.77;;;;;;;;;;4946921;28;20296;-87
2023/01/22 00:16:50;;;;;;;5.20;4.70;;;;;;;;;;4947861;28;20233;-87
2023/01/22 00:19:16;;;;;;;4.90;4.40;;;;;;;;;;4961876;28;20225;-88
2023/01/22 00:21:43;;;;;;;8.47;4.80;;;;;;;;;;4971903;28;20352;-87
2023/01/22 00:24:09;;;;;;;4.93;4.43;;;;;;;;;;4953898;28;20266;-89
2023/01/22 00:26:35;;;;;;;4.20;3.90;;;;;;;;;;4948108;28;20471;-88
2023/01/22 00:29:01;;;;;;;5.63;4.43;;;;;;;;;;4934742;28;20223;-88
2023/01/22 00:31:26;;;;;;;4.43;4.03;;;;;;;;;;4948974;28;20227;-87
2023/01/22 00:33:52;;;;;;;5.87;4.57;;;;;;;;;;4940962;28;20227;-87
2023/01/22 00:36:21;;;;;;;5.20;4.80;;;;;;;;;;4956601;28;20232;-85
2023/01/22 00:38:49;;;;;;;4.73;4.33;;;;;;;;;;4956825;28;20311;-86
2023/01/22 00:41:17;;;;;;;5.67;4.73;;;;;;;;;;4970482;28;20227;-85
2023/01/22 00:43:43;;;;;;;5.40;4.40;;;;;;;;;;4969428;28;20242;-87
2023/01/22 00:46:10;;;;;;;4.60;4.20;;;;;;;;;;4971579;28;20215;-87
2023/01/22 00:48:36;;;;;;;4.73;3.87;;;;;;;;;;4961304;28;20230;-89
2023/01/22 00:51:04;;;;;;;4.47;4.07;;;;;;;;;;4967968;28;20723;-86
2023/01/22 00:53:30;;;;;;;4.60;3.63;;;;;;;;;;4952747;28;20227;-86
2023/01/22 00:55:59;;;;;;;4.47;4.07;;;;;;;;;;4965979;28;20561;-87
2023/01/22 00:58:28;;;;;;;3.87;3.57;;;;;;;;;;4956920;28;20628;-85
2023/01/22 01:00:54;;;;;;;4.97;4.50;;;;;;;;;;4953635;28;20306;-86
2023/01/22 01:03:31;;;;;;;4.17;3.67;;;;;;;;;;4964182;28;20261;-83
2023/01/22 01:05:58;;;;;;;4.83;3.93;;;;;;;;;;4984593;28;20225;-86
2023/01/22 01:08:24;;;;;;;4.20;3.80;;;;;;;;;;4984413;28;20213;-87
2023/01/22 01:11:00;;;;;;;4.63;4.23;;;;;;;;;;4973707;28;20233;-87
2023/01/22 01:13:26;;;;;;;4.93;4.43;;;;;;;;;;4965688;28;20245;-86
2023/01/22 01:16:01;;;;;;;5.13;4.60;;;;;;;;;;4956759;28;20214;-89
2023/01/22 01:18:27;;;;;;;4.27;3.70;;;;;;;;;;4981054;28;20639;-86
2023/01/22 01:20:54;;;;;;;4.97;4.43;;;;;;;;;;4945455;28;20966;-87
2023/01/22 01:23:21;;;;;;;5.37;3.87;;;;;;;;;;4957195;28;20356;-88
2023/01/22 01:25:49;;;;;;;5.50;4.17;;;;;;;;;;4958402;28;20222;-88
2023/01/22 01:28:17;;;;;;;4.60;4.20;;;;;;;;;;4949595;28;20210;-88
2023/01/22 01:30:43;;;;;;;4.23;3.83;;;;;;;;;;4957474;28;20226;-88
2023/01/22 01:33:09;;;;;;;3.87;3.57;;;;;;;;;;4964977;28;20729;-88
2023/01/22 01:35:35;;;;;;;3.93;3.60;;;;;;;;;;4938781;28;20225;-87
2023/01/22 01:38:01;;;;;;;6.57;4.47;;;;;;;;;;4950250;28;20298;-88
2023/01/22 01:40:28;;;;;;;4.20;3.80;;;;;;;;;;4967350;28;20268;-86
2023/01/22 01:42:54;;;;;;;4.47;4.03;;;;;;;;;;4958243;28;20229;-87
2023/01/22 01:45:30;;;;;;;5.77;4.03;;;;;;;;;;4951601;28;20213;-88
2023/01/22 01:48:28;;;;;;;6.23;4.40;;;;;;;;;;4951479;28;20265;-88
2023/01/22 01:51:36;;;;;;;4.70;4.30;;;;;;;;;;4963197;28;20357;-86
2023/01/22 01:54:04;;;;;;;4.20;3.80;;;;;;;;;;4922255;28;20217;-86
2023/01/22 01:56:34;;;;;;;4.30;3.87;;;;;;;;;;4992052;28;20330;-87
2023/01/22 01:59:02;;;;;;;4.67;4.27;;;;;;;;;;4978520;28;20301;-87
2023/01/22 02:01:28;;;;;;;4.77;4.27;;;;;;;;;;4949754;28;20237;-87
2023/01/22 02:03:53;;;;;;;5.43;4.33;;;;;;;;;;4959508;28;20235;-86
2023/01/22 02:06:19;;;;;;;3.93;3.57;;;;;;;;;;4959741;28;20215;-87
2023/01/22 02:08:46;;;;;;;5.80;4.30;;;;;;;;;;4967967;28;20292;-86
2023/01/22 02:11:12;;;;;;;5.50;3.93;;;;;;;;;;4951818;28;20218;-88
2023/01/22 02:13:40;;;;;;;6.33;4.27;;;;;;;;;;4958440;28;20234;-87
2023/01/22 02:16:09;;;;;;;8.00;3.83;;;;;;;;;;4945198;28;20218;-87
2023/01/22 02:18:35;;;;;;;8.20;4.80;;;;;;;;;;4922159;29;20220;-88
2023/01/22 02:21:00;;;;;;;5.73;4.70;;;;;;;;;;4962354;28;20226;-87
2023/01/22 02:23:29;;;;;;;8.03;5.27;;;;;;;;;;4972402;28;20266;-86
2023/01/22 02:25:57;;;;;;;4.40;4.10;;;;;;;;;;4937977;28;20245;-87
2023/01/22 02:28:23;;;;;;;4.87;4.37;;;;;;;;;;4962397;28;20234;-87
2023/01/22 02:30:52;;;;;;;4.67;4.27;;;;;;;;;;4946704;28;20222;-87
2023/01/22 02:33:20;;;;;;;5.87;4.47;;;;;;;;;;4966141;28;21114;-89
2023/01/22 02:35:48;;;;;;;4.60;4.20;;;;;;;;;;4975713;28;20226;-88
2023/01/22 02:38:13;;;;;;;5.80;4.17;;;;;;;;;;4946291;28;20232;-88
2023/01/22 02:40:47;;;;;;;4.90;4.50;;;;;;;;;;4952697;28;20226;-87
2023/01/22 02:43:16;;;;;;;4.53;4.00;;;;;;;;;;4963423;28;20659;-88
2023/01/22 02:45:44;;;;;;;4.60;4.20;;;;;;;;;;4947643;28;20215;-86
2023/01/22 02:48:12;;;;;;;5.03;4.53;;;;;;;;;;4958632;28;20237;-87
2023/01/22 02:50:38;;;;;;;5.83;5.17;;;;;;;;;;4943158;28;20253;-87
2023/01/22 02:53:03;;;;;;;7.27;4.83;;;;;;;;;;4954546;28;20218;-89
2023/01/22 02:55:32;;;;;;;6.10;5.10;;;;;;;;;;4927391;28;20608;-87
2023/01/22 02:57:57;;;;;;;5.03;4.53;;;;;;;;;;4971487;28;20254;-88
2023/01/22 03:00:23;;;;;;;5.00;4.50;;;;;;;;;;4948131;28;20580;-86
2023/01/22 03:02:49;;;;;;;5.13;4.73;;;;;;;;;;4932959;28;20727;-87
2023/01/22 03:05:14;;;;;;;5.80;5.30;;;;;;;;;;4966241;28;20226;-87
2023/01/22 03:07:43;;;;;;;5.90;4.97;;;;;;;;;;4943954;28;20394;-88
2023/01/22 03:10:19;;;;;;;5.80;5.13;;;;;;;;;;4959104;28;20215;-88
2023/01/22 03:21:16;;;;;;;6.47;5.43;;;;;;;;;;4948752;28;20618;-88
2023/01/22 03:23:43;;;;;;;7.23;5.33;;;;;;;;;;4932153;28;20231;-88
2023/01/22 03:26:09;;;;;;;5.43;4.90;;;;;;;;;;4946907;28;20294;-89
2023/01/22 03:28:35;;;;;;;6.73;5.93;;;;;;;;;;4945094;28;20229;-88
2023/01/22 03:31:03;;;;;;;7.53;5.57;;;;;;;;;;4943570;28;20216;-87
2023/01/22 03:33:30;;;;;;;7.30;5.80;;;;;;;;;;4964398;28;20305;-87
2023/01/22 03:36:07;;;;;;;6.30;5.77;;;;;;;;;;4949515;28;20269;-86
2023/01/22 03:38:37;;;;;;;5.30;4.87;;;;;;;;;;4947008;28;20233;-86
2023/01/22 03:41:09;;;;;;;5.63;5.13;;;;;;;;;;4947359;28;20206;-86
2023/01/22 03:43:34;;;;;;;7.33;5.60;;;;;;;;;;4979288;28;20258;-88
2023/01/22 03:46:12;;;;;;;8.40;6.23;;;;;;;;;;4929874;28;20220;-87
2023/01/22 03:48:42;;;;;;;6.37;5.77;;;;;;;;;;4961602;28;20256;-86
2023/01/22 03:51:13;;;;;;;9.43;5.90;;;;;;;;;;4963105;28;20230;-87
2023/01/22 03:53:42;;;;;;;7.47;5.97;;;;;;;;;;4947830;28;20225;-86
2023/01/22 03:56:16;;;;;;;7.37;6.13;;;;;;;;;;4977359;28;20224;-87
2023/01/22 03:58:41;;;;;;;7.77;5.97;;;;;;;;;;4939907;28;20226;-87
2023/01/22 04:01:10;;;;;;;8.63;6.27;;;;;;;;;;4964887;28;20218;-88
2023/01/22 04:03:38;;;;;;;7.00;6.30;;;;;;;;;;4961287;28;20234;-88
2023/01/22 04:06:04;;;;;;;7.70;5.93;;;;;;;;;;4948347;28;20218;-87
2023/01/22 04:08:35;;;;;;;8.83;6.50;;;;;;;;;;4969092;28;20215;-87
2023/01/22 04:11:01;;;;;;;5.87;5.20;;;;;;;;;;4963392;28;20626;-88
2023/01/22 04:13:28;;;;;;;6.43;5.67;;;;;;;;;;4983054;28;20230;-88
2023/01/22 04:15:55;;;;;;;6.47;5.90;;;;;;;;;;4943831;28;20218;-88
2023/01/22 04:18:41;;;;;;;6.30;5.60;;;;;;;;;;4959814;28;20326;-88
2023/01/22 04:21:26;;;;;;;5.13;4.73;;;;;;;;;;4975882;28;20318;-85
2023/01/22 04:23:55;;;;;;;5.57;5.03;;;;;;;;;;4948365;28;20223;-87
2023/01/22 04:26:26;;;;;;;6.30;5.70;;;;;;;;;;4944020;28;21334;-88
2023/01/22 04:28:54;;;;;;;6.73;5.17;;;;;;;;;;4945452;28;20207;-88
2023/01/22 04:31:21;;;;;;;7.37;6.50;;;;;;;;;;4978288;28;20912;-88
2023/01/22 04:34:18;;;;;;;6.00;5.17;;;;;;;;;;4953287;28;20217;-88
2023/01/22 04:36:59;;;;;;;5.67;5.07;;;;;;;;;;4923725;29;20212;-88
2023/01/22 04:39:30;;;;;;;7.83;5.93;;;;;;;;;;4970030;28;20230;-88
2023/01/22 04:41:55;;;;;;;7.13;6.03;;;;;;;;;;4942988;28;20265;-88
2023/01/22 04:44:23;;;;;;;7.93;6.10;;;;;;;;;;4927376;28;20242;-88
2023/01/22 04:46:54;;;;;;;7.33;6.37;;;;;;;;;;4944478;28;20245;-87
2023/01/22 04:49:20;;;;;;;6.90;5.90;;;;;;;;;;4973855;28;20214;-87
2023/01/22 04:51:48;;;;;;;6.93;6.23;;;;;;;;;;4984365;28;20285;-87
2023/01/22 04:54:14;;;;;;;6.17;5.67;;;;;;;;;;4955881;28;20194;-87
2023/01/22 04:56:39;;;;;;;7.93;6.57;;;;;;;;;;4963114;28;20225;-87
2023/01/22 04:59:06;;;;;;;9.53;6.10;;;;;;;;;;4959095;28;20706;-88
2023/01/22 05:01:34;;;;;;;6.83;6.13;;;;;;;;;;4949170;28;20305;-86
2023/01/22 05:04:05;;;;;;;6.70;6.00;;;;;;;;;;4956515;28;20226;-87
2023/01/22 05:06:33;;;;;;;6.47;5.87;;;;;;;;;;4938136;28;20222;-87
2023/01/22 05:08:59;;;;;;;6.63;6.03;;;;;;;;;;4983974;28;20210;-87
2023/01/22 05:11:28;;;;;;;7.43;5.90;;;;;;;;;;4958845;28;20253;-87
2023/01/22 05:13:59;;;;;;;7.20;6.37;;;;;;;;;;4959763;28;20213;-87
2023/01/22 05:16:25;;;;;;;9.00;5.73;;;;;;;;;;4947525;28;20233;-86
2023/01/22 05:18:55;;;;;;;6.70;5.97;;;;;;;;;;4960079;28;20233;-88
2023/01/22 05:21:21;;;;;;;9.40;6.33;;;;;;;;;;4951519;28;20237;-88
2023/01/22 05:23:47;;;;;;;12.47;6.10;;;;;;;;;;4933696;28;20278;-87
2023/01/22 05:26:12;;;;;;;10.90;6.20;;;;;;;;;;4985207;28;20222;-87
2023/01/22 05:28:44;;;;;;;6.97;6.27;;;;;;;;;;4946180;28;20225;-87
2023/01/22 05:31:21;;;;;;;6.67;5.77;;;;;;;;;;4978294;28;20214;-88
2023/01/22 05:34:00;;;;;;;6.47;5.87;;;;;;;;;;4954325;28;20233;-88
2023/01/22 05:36:28;;;;;;;10.00;6.30;;;;;;;;;;4949682;28;20285;-89
2023/01/22 05:38:57;;;;;;;7.60;6.80;;;;;;;;;;4958522;28;20362;-89
2023/01/22 05:41:25;;;;;;;6.50;5.90;;;;;;;;;;4975151;28;20236;-88
2023/01/22 05:43:52;;;;;;;7.97;6.17;;;;;;;;;;4964346;28;20226;-88
2023/01/22 05:46:27;;;;;;;6.17;5.67;;;;;;;;;;4959573;28;20675;-89
2023/01/22 05:49:11;;;;;;;6.47;5.87;;;;;;;;;;4947393;28;20242;-89
2023/01/22 05:51:37;;;;;;;5.60;5.10;;;;;;;;;;4939226;29;20235;-87
2023/01/22 05:54:03;;;;;;;7.27;5.90;;;;;;;;;;4962877;28;20217;-88
2023/01/22 05:56:35;;;;;;;7.30;5.57;;;;;;;;;;4967228;28;20232;-87
2023/01/22 05:59:03;;;;;;;6.87;5.93;;;;;;;;;;4976850;28;20245;-89
2023/01/22 06:01:32;;;;;;;7.50;6.63;;;;;;;;;;4970739;28;20229;-88
2023/01/22 06:04:00;;;;;;;6.97;6.20;;;;;;;;;;4960137;28;20309;-88
2023/01/22 06:06:25;;;;;;;7.90;5.43;;;;;;;;;;4975946;28;20225;-88
2023/01/22 06:08:51;;;;;;;7.17;6.47;;;;;;;;;;4957649;28;20218;-89
2023/01/22 06:11:20;;;;;;;6.63;5.93;;;;;;;;;;4954293;28;20297;-88
2023/01/22 06:13:46;;;;;;;6.17;5.57;;;;;;;;;;4952659;28;20328;-89
2023/01/22 06:16:16;;;;;;;8.20;6.67;;;;;;;;;;4968574;28;20297;-89
2023/01/22 06:19:01;;;;;;;10.33;6.03;;;;;;;;;;4974243;28;20221;-89
2023/01/22 06:21:35;;;;;;;6.57;5.90;;;;;;;;;;4949897;28;20222;-87
2023/01/22 06:24:03;;;;;;;6.60;5.73;;;;;;;;;;4958516;28;20364;-88
2023/01/22 06:26:30;;;;;;;7.30;6.60;;;;;;;;;;4938201;29;20211;-88
2023/01/22 06:28:57;;;;;;;6.97;6.23;;;;;;;;;;4955690;28;20603;-86
2023/01/22 06:31:23;;;;;;;9.83;6.67;;;;;;;;;;4964545;28;20233;-89
2023/01/22 06:33:48;;;;;;;9.83;6.30;;;;;;;;;;4953323;28;20242;-89
2023/01/22 06:36:14;;;;;;;7.40;6.23;;;;;;;;;;4928118;28;20239;-88
2023/01/22 06:38:41;;;;;;;7.83;6.67;;;;;;;;;;4984141;28;20222;-88
2023/01/22 06:41:09;;;;;;;6.53;5.67;;;;;;;;;;4984510;28;20221;-89
2023/01/22 06:43:36;;;;;;;6.70;5.23;;;;;;;;;;4940226;28;20258;-86
2023/01/22 06:46:04;;;;;;;6.57;5.97;;;;;;;;;;4962231;28;20653;-86
2023/01/22 06:48:53;;;;;;;6.40;5.77;;;;;;;;;;4982149;28;20225;-87
2023/01/22 06:51:19;;;;;;;9.77;6.30;;;;;;;;;;4945667;28;20226;-88
2023/01/22 06:53:45;;;;;;;8.17;6.10;;;;;;;;;;4966436;28;20880;-87
2023/01/22 06:56:10;;;;;;;6.57;5.60;;;;;;;;;;4959079;28;20227;-88
2023/01/22 06:58:36;;;;;;;7.63;5.63;;;;;;;;;;4969083;28;20261;-87
2023/01/22 07:01:03;;;;;;;7.27;6.57;;;;;;;;;;4987039;28;20241;-87
2023/01/22 07:03:28;;;;;;;6.70;5.87;;;;;;;;;;4976535;28;20257;-87
2023/01/22 07:05:56;;;;;;;7.03;5.57;;;;;;;;;;4996620;28;20238;-88
2023/01/22 07:08:22;;;;;;;7.37;6.27;;;;;;;;;;4984524;23;20304;-76
2023/01/22 07:10:54;;;;;;;8.63;5.73;;;;;;;;;;5009431;28;20291;-77
2023/01/22 07:13:22;;;;;;;6.47;5.80;;;;;;;;;;4996717;28;20275;-77
2023/01/22 07:21:03;;;;;;;6.17;5.23;;;;;;;;;;4969869;28;20204;-88
2023/01/22 07:23:29;;;;;;;7.17;5.77;;;;;;;;;;4984868;28;20298;-87
2023/01/22 07:25:57;;;;;;;6.70;6.03;;;;;;;;;;4989765;28;20209;-87
2023/01/22 07:28:25;;;;;;;7.43;6.20;;;;;;;;;;4971340;28;20211;-86
2023/01/22 07:30:51;;;;;;;7.43;5.57;;;;;;;;;;4975585;28;20237;-87
2023/01/22 07:33:16;;;;;;;8.10;6.27;;;;;;;;;;4984253;28;20223;-87
2023/01/22 07:35:42;;;;;;;10.97;6.73;;;;;;;;;;4969896;28;20366;-87
2023/01/22 07:38:07;;;;;;;7.33;6.00;;;;;;;;;;4987554;28;20261;-88
2023/01/22 07:40:33;;;;;;;8.80;6.20;;;;;;;;;;4976238;28;20221;-87
2023/01/22 07:42:59;;;;;;;7.30;6.50;;;;;;;;;;4993862;28;20240;-88
2023/01/22 07:45:24;;;;;;;7.00;6.23;;;;;;;;;;4967252;28;20219;-88
2023/01/22 07:47:51;;;;;;;6.67;6.00;;;;;;;;;;4979270;28;20225;-87
2023/01/22 07:54:35;;;;;;;7.50;6.07;;;;;;;;;;4987561;28;20204;-88
2023/01/22 07:57:02;;;;;;;6.63;5.83;;;;;;;;;;5005853;23;20234;-77
2023/01/22 07:59:28;;;;;;;7.00;6.30;;;;;;;;;;4964649;28;20286;-78
2023/01/22 08:01:54;;;;;;;5.50;4.93;;;;;;;;;;4955118;28;20345;-78
2023/01/22 08:04:22;;;;;;;7.47;5.87;;;;;;;;;;4944899;28;20235;-78
2023/01/22 08:06:47;;;;;;;7.93;5.80;;;;;;;;;;4918303;29;20223;-76
2023/01/22 08:09:14;;;;;;;5.73;5.03;;;;;;;;;;4916723;28;20238;-78
2023/01/22 08:11:40;;;;;;;7.23;5.70;;;;;;;;;;4931306;28;20223;-79
2023/01/22 08:14:08;;;;;;;7.73;6.10;;;;;;;;;;4928458;28;20280;-76
2023/01/22 08:16:36;;;;;;;7.87;6.77;;;;;;;;;;4926532;28;20576;-77
2023/01/22 08:19:01;;;;;;;7.13;5.60;;;;;;;;;;4895427;28;20849;-77
2023/01/22 08:21:27;;;;;;;7.27;5.90;;;;;;;;;;4907962;28;20231;-77
2023/01/22 08:23:55;;;;;;;7.10;5.90;;;;;;;;;;4893080;28;20227;-77
2023/01/22 08:26:22;;;;;;;5.50;4.93;;;;;;;;;;4899345;28;20721;-78
2023/01/22 08:28:48;;;;;;;8.90;6.07;;;;;;;;;;4899162;29;20227;-78
2023/01/22 08:31:13;;;;;;;6.20;5.27;;;;;;;;;;4910684;28;20227;-78
2023/01/22 08:33:44;;;;;;;6.17;5.33;;;;;;;;;;4900901;29;20872;-77
2023/01/22 08:36:09;;;;;;;7.03;6.00;;;;;;;;;;4914135;28;20913;-78
2023/01/22 08:38:35;;;;;;;6.73;6.13;;;;;;;;;;4918012;28;20234;-76
2023/01/22 08:41:04;;;;;;;9.20;5.93;;;;;;;;;;4907940;28;20223;-77
2023/01/22 08:43:32;;;;;;;6.57;5.57;;;;;;;;;;4918767;29;20239;-77
2023/01/22 08:45:57;;;;;;;6.33;5.67;;;;;;;;;;4914586;28;20263;-77
2023/01/22 08:48:23;;;;;;;7.50;5.20;;;;;;;;;;4913555;28;20215;-76
2023/01/22 08:56:05;;;;;;;7.23;5.40;;;;;;;;;;4945563;28;20241;-78
2023/01/22 08:58:30;;;;;;;11.17;5.93;;;;;;;;;;4946888;28;20237;-78
2023/01/22 09:00:56;;;;;;;8.23;6.33;;;;;;;;;;4912835;28;20222;-80
2023/01/22 09:03:21;;;;;;;9.63;5.70;;;;;;;;;;4918029;28;20229;-76
2023/01/22 09:05:47;;;;;;;7.57;5.67;;;;;;;;;;4938583;28;20214;-77
2023/01/22 09:08:12;;;;;;;8.43;5.57;;;;;;;;;;4935249;28;20261;-76
2023/01/22 09:10:38;;;;;;;7.90;4.60;;;;;;;;;;4954810;28;20222;-75
2023/01/22 09:13:06;;;;;;;6.27;5.37;;;;;;;;;;4947620;28;20228;-77
2023/01/22 09:15:34;;;;;;;7.60;5.87;;;;;;;;;;4948672;28;20224;-77
2023/01/22 09:18:02;;;;;;;5.93;5.10;;;;;;;;;;4939211;28;20302;-77
2023/01/22 09:20:30;;;;;;;5.53;4.87;;;;;;;;;;4940664;28;20252;-76
2023/01/22 09:22:55;;;;;;;8.43;5.73;;;;;;;;;;4944582;28;20261;-76
2023/01/22 09:25:21;;;;;;;6.83;4.83;;;;;;;;;;4959238;28;20230;-78
2023/01/22 09:27:47;;;;;;;6.50;5.03;;;;;;;;;;4959144;28;20222;-77
2023/01/22 09:30:15;;;;;;;6.83;5.07;;;;;;;;;;4929454;28;20230;-78
2023/01/22 09:32:41;;;;;;;8.33;5.20;;;;;;;;;;4930396;28;20597;-79
2023/01/22 09:35:07;;;;;;;5.13;4.63;;;;;;;;;;4931736;28;20249;-79
2023/01/22 09:37:33;;;;;;;8.57;5.30;;;;;;;;;;4930659;28;20222;-78
2023/01/22 09:40:01;;;;;;;8.57;5.23;;;;;;;;;;4915539;28;20218;-78
2023/01/22 09:42:32;;;;;;;7.87;5.50;;;;;;;;;;4971566;28;20222;-78
2023/01/22 09:45:03;;;;;;;7.23;5.13;;;;;;;;;;4952062;28;20280;-78
2023/01/22 09:47:46;;;;;;;6.57;4.47;;;;;;;;;;4949408;28;20222;-78
2023/01/22 09:50:20;;;;;;;6.60;5.30;;;;;;;;;;4954318;28;20298;-79
2023/01/22 09:52:46;;;;;;;8.07;4.90;;;;;;;;;;4940910;28;20232;-79
2023/01/22 09:55:15;;;;;;;5.83;4.97;;;;;;;;;;4952501;28;20256;-79
2023/01/22 09:57:46;;;;;;;8.23;4.63;;;;;;;;;;4955623;28;20228;-79
2023/01/22 10:00:18;;;;;;;8.40;5.07;;;;;;;;;;4935600;28;20226;-79
2023/01/22 10:02:59;;;;;;;7.73;5.17;;;;;;;;;;4966537;28;20613;-76
2023/01/22 10:05:41;;;;;;;5.27;4.77;;;;;;;;;;4952285;28;20235;-79
2023/01/22 10:08:24;;;;;;;6.77;5.37;;;;;;;;;;4952264;28;20230;-78
2023/01/22 10:10:50;;;;;;;6.57;5.17;;;;;;;;;;4933761;28;20632;-78
2023/01/22 10:13:35;;;;;;;9.07;6.13;;;;;;;;;;4940766;28;20229;-79
2023/01/22 10:16:01;;;;;;;6.40;5.33;;;;;;;;;;4941314;28;20677;-77
2023/01/22 10:18:54;;;;;;;10.53;5.87;;;;;;;;;;4964083;28;20233;-78
2023/01/22 10:21:40;;;;;;;8.60;5.60;;;;;;;;;;4963706;28;21020;-78
2023/01/22 10:24:08;;;;;;;6.17;4.47;;;;;;;;;;4963937;28;20245;-78
2023/01/22 10:26:46;;;;;;;5.37;4.37;;;;;;;;;;4950933;28;20241;-80
2023/01/22 10:29:18;;;;;;;5.37;4.40;;;;;;;;;;4949808;28;20230;-78
2023/01/22 10:31:48;;;;;;;11.27;5.20;;;;;;;;;;4919024;28;20225;-77
2023/01/22 10:36:51;;;;;;;5.23;4.73;;;;;;;;;;4914949;28;20238;-78
2023/01/22 10:39:20;;;;;;;7.60;5.37;;;;;;;;;;4897344;28;20231;-77
2023/01/22 10:41:49;;;;;;;8.23;5.80;;;;;;;;;;4910845;29;20223;-76
2023/01/22 10:44:14;;;;;;;10.77;5.53;;;;;;;;;;4892066;28;20605;-78
2023/01/22 10:46:40;;;;;;;6.40;5.23;;;;;;;;;;4933169;28;21162;-77
2023/01/22 10:49:07;;;;;;;5.67;5.00;;;;;;;;;;4898278;28;20230;-78
2023/01/22 10:51:37;;;;;;;5.77;4.53;;;;;;;;;;4917697;29;20230;-78
2023/01/22 10:54:03;;;;;;;7.17;5.07;;;;;;;;;;4912355;28;20226;-78
2023/01/22 10:56:31;;;;;;;8.10;4.80;;;;;;;;;;4916275;28;20231;-77
2023/01/22 10:58:57;;;;;;;5.77;4.50;;;;;;;;;;4901414;29;20586;-78
2023/01/22 11:01:34;;;;;;;7.77;5.40;;;;;;;;;;4913721;28;20226;-77
2023/01/22 11:04:13;;;;;;;7.67;4.60;;;;;;;;;;4934570;28;20242;-77
2023/01/22 11:06:45;;;;;;;9.50;5.50;;;;;;;;;;4910934;28;20711;-75
2023/01/22 11:09:26;;;;;;;7.20;4.93;;;;;;;;;;4910659;28;20292;-77
2023/01/22 11:12:15;;;;;;;7.07;5.30;;;;;;;;;;4904636;28;20222;-78
2023/01/22 11:14:43;;;;;;;6.30;4.60;;;;;;;;;;4936046;28;20776;-76
2023/01/22 11:17:17;;;;;;;9.13;5.17;;;;;;;;;;4937404;28;20234;-75
2023/01/22 11:19:46;;;;;;;6.53;4.50;;;;;;;;;;4924148;28;20240;-78
2023/01/22 11:22:32;;;;;;;5.87;5.13;;;;;;;;;;4918076;28;20374;-78
2023/01/22 11:25:01;;;;;;;9.50;5.00;;;;;;;;;;4886707;29;20258;-78
2023/01/22 11:27:57;;;;;;;6.80;4.80;;;;;;;;;;4916532;28;20230;-76
2023/01/22 11:30:38;;;;;;;9.13;5.40;;;;;;;;;;4884764;28;20231;-76
2023/01/22 11:33:22;;;;;;;6.57;5.03;;;;;;;;;;4928380;28;20308;-77
2023/01/22 11:36:05;;;;;;;6.13;4.83;;;;;;;;;;4926079;28;20233;-77
2023/01/22 11:38:55;;;;;;;6.67;3.70;;;;;;;;;;4914844;28;20238;-76
2023/01/22 11:41:36;;;;;;;8.23;5.47;;;;;;;;;;4913545;28;20218;-76
2023/01/22 11:44:26;;;;;;;8.33;5.07;;;;;;;;;;4917233;28;20230;-77
2023/01/22 11:47:03;;;;;;;7.57;4.93;;;;;;;;;;4928606;28;20250;-77
2023/01/22 11:50:17;;;;;;;5.07;3.50;;;;;;;;;;4915761;28;20231;-74
2023/01/22 11:52:45;;;;;;;5.90;4.43;;;;;;;;;;4887007;28;20234;-78
2023/01/22 11:55:30;;;;;;;9.50;4.03;;;;;;;;;;4930262;28;20222;-76
2023/01/22 11:58:25;;;;;;;7.53;3.60;;;;;;;;;;4913789;28;20786;-76
2023/01/22 12:01:06;;;;;;;7.17;3.53;;;;;;;;;;4884203;28;20898;-75
2023/01/22 12:04:04;;;;;;;4.13;2.70;;;;;;;;;;4899500;29;20231;-77
2023/01/22 12:06:45;;;;;;;5.83;3.30;;;;;;;;;;4888264;29;20416;-76
2023/01/22 12:09:26;;;;;;;4.97;2.70;;;;;;;;;;4928623;28;20218;-78
2023/01/22 12:12:05;;;;;;;4.20;2.43;;;;;;;;;;4946918;28;20867;-77
2023/01/22 12:14:57;;;;;;;6.30;3.30;;;;;;;;;;4902483;29;20231;-75
2023/01/22 12:17:37;;;;;;;5.30;3.00;;;;;;;;;;4909627;28;20227;-77
2023/01/22 12:20:29;;;;;;;3.97;2.37;;;;;;;;;;4924701;28;20257;-76
2023/01/22 12:22:56;;;;;;;5.80;2.30;;;;;;;;;;4911311;28;20216;-77
2023/01/22 12:25:37;;;;;;;5.40;3.03;;;;;;;;;;4924439;28;20247;-77
2023/01/22 12:28:50;;;;;;;3.40;2.20;;;;;;;;;;4926275;28;20281;-77
2023/01/22 12:31:15;;;;;;;4.90;2.20;;;;;;;;;;4923162;28;20611;-76
2023/01/22 12:33:46;;;;;;;4.07;1.77;;;;;;;;;;4923560;28;20238;-77
2023/01/22 12:36:15;;;;;;;4.93;2.07;;;;;;;;;;4913619;28;22813;-75
2023/01/22 12:38:44;;;;;;;5.00;2.50;;;;;;;;;;4894935;29;20223;-74
2023/01/22 12:41:17;;;;;;;4.17;2.50;;;;;;;;;;4895276;28;20367;-76
2023/01/22 12:44:07;;;;;;;4.87;2.20;;;;;;;;;;4933834;28;20237;-74
2023/01/22 12:47:17;;;;;;;6.30;2.20;;;;;;;;;;4929883;28;20222;-78
2023/01/22 12:49:50;;;;;;;5.67;2.03;;;;;;;;;;4891401;29;20359;-77
2023/01/22 12:52:35;;;;;;;3.07;2.53;;;;;;;;;;4911626;28;20223;-75
2023/01/22 12:55:02;;;;;;;3.03;2.17;;;;;;;;;;4925652;28;20227;-77
2023/01/22 12:57:39;;;;;;;4.00;2.23;;;;;;;;;;4925333;28;20238;-78
2023/01/22 13:00:21;;;;;;;3.37;1.80;;;;;;;;;;4905927;28;20341;-75
2023/01/22 13:02:47;;;;;;;3.60;2.17;;;;;;;;;;4894686;29;21422;-75
2023/01/22 13:05:19;;;;;;;2.10;1.40;;;;;;;;;;4887696;28;20772;-77
2023/01/22 13:07:45;;;;;;;4.17;1.80;;;;;;;;;;4945016;28;20234;-77
2023/01/22 13:10:19;;;;;;;5.50;2.17;;;;;;;;;;4942004;28;20231;-76
2023/01/22 13:12:48;;;;;;;3.47;1.80;;;;;;;;;;4927872;28;20268;-77
2023/01/22 13:15:34;;;;;;;4.83;2.10;;;;;;;;;;4895014;28;20211;-77
2023/01/22 13:18:14;;;;;;;3.47;1.77;;;;;;;;;;4909977;28;20239;-77
2023/01/22 13:21:07;;;;;;;3.57;2.30;;;;;;;;;;4929973;28;20222;-76
2023/01/22 13:23:40;;;;;;;5.63;2.03;;;;;;;;;;4924507;28;20282;-75
2023/01/22 13:26:05;;;;;;;3.13;1.70;;;;;;;;;;4891021;28;20257;-77
2023/01/22 13:28:35;;;;;;;3.97;2.20;;;;;;;;;;4898962;28;20223;-74
2023/01/22 13:31:03;;;;;;;3.87;1.93;;;;;;;;;;4887546;28;20226;-77
2023/01/22 13:33:33;;;;;;;2.63;1.80;;;;;;;;;;4918500;28;20262;-76
2023/01/22 13:36:06;;;;;;;4.23;2.03;;;;;;;;;;4921561;28;20219;-77
2023/01/22 13:38:34;;;;;;;4.07;2.40;;;;;;;;;;4927032;28;20231;-76
2023/01/22 13:41:05;;;;;;;5.57;1.97;;;;;;;;;;4910859;28;20306;-74
2023/01/22 13:43:31;;;;;;;5.27;1.57;;;;;;;;;;4927698;28;20703;-77
2023/01/22 13:45:56;;;;;;;2.10;1.30;;;;;;;;;;4949084;28;20233;-77
2023/01/22 13:48:26;;;;;;;2.97;2.17;;;;;;;;;;4934466;28;20690;-75
2023/01/22 13:51:07;;;;;;;5.17;1.93;;;;;;;;;;4949282;28;20234;-74
2023/01/22 13:53:38;;;;;;;2.00;1.43;;;;;;;;;;4947998;28;20225;-76
2023/01/22 13:56:07;;;;;;;2.53;1.63;;;;;;;;;;4952731;28;20218;-76
2023/01/22 13:58:35;;;;;;;3.50;1.80;;;;;;;;;;4949375;28;21220;-75
2023/01/22 14:01:02;;;;;;;2.50;1.80;;;;;;;;;;4967277;28;20227;-77
2023/01/22 14:03:31;;;;;;;3.07;2.30;;;;;;;;;;4975588;28;20310;-78
2023/01/22 14:06:09;;;;;;;4.23;3.60;;;;;;;;;;4981956;28;20539;-77
2023/01/22 14:08:51;;;;;;;10.13;6.63;;;;;;;;;;4957429;28;20286;-76
2023/01/22 14:11:17;;;;;;;4.43;2.43;;;;;;;;;;4977777;28;20572;-77
2023/01/22 14:13:45;;;;;;;12.17;9.37;;;;;;;;;;4980324;28;20274;-76
2023/01/22 14:16:15;;;;;;;10.70;7.77;;;;;;;;;;4957206;28;20246;-78
2023/01/22 14:18:44;;;;;;;29.03;21.47;;;;;;;;;;4948424;28;20215;-78
2023/01/22 14:21:10;;;;;;;6.47;2.60;;;;;;;;;;4978626;28;20289;-77
2023/01/22 14:23:41;;;;;;;5.50;2.60;;;;;;;;;;4951074;28;20275;-75
2023/01/22 14:26:07;;;;;;;3.00;2.10;;;;;;;;;;4952207;28;20214;-77
2023/01/22 14:28:35;;;;;;;4.30;2.13;;;;;;;;;;4967440;28;20646;-77
2023/01/22 14:31:01;;;;;;;3.27;2.40;;;;;;;;;;4961152;28;20223;-76
2023/01/22 14:33:30;;;;;;;4.00;2.70;;;;;;;;;;4950361;28;20223;-76
2023/01/22 14:35:55;;;;;;;4.23;2.30;;;;;;;;;;4956902;28;20238;-77
2023/01/22 14:38:22;;;;;;;3.23;2.00;;;;;;;;;;4949870;28;20278;-76
2023/01/22 14:40:47;;;;;;;3.23;1.97;;;;;;;;;;4965630;28;20238;-75
2023/01/22 14:43:17;;;;;;;6.17;4.67;;;;;;;;;;4950602;28;20230;-75
2023/01/22 14:45:44;;;;;;;5.23;2.20;;;;;;;;;;4956683;28;20251;-76
2023/01/22 14:48:16;;;;;;;3.57;1.80;;;;;;;;;;4950490;28;20222;-76
2023/01/22 14:50:44;;;;;;;5.03;3.27;;;;;;;;;;4949461;28;20230;-76
2023/01/22 14:53:10;;;;;;;7.37;3.53;;;;;;;;;;4928805;28;20219;-76
2023/01/22 14:55:39;;;;;;;2.00;1.70;;;;;;;;;;4956231;28;20780;-77
2023/01/22 14:58:06;;;;;;;2.03;1.37;;;;;;;;;;4956630;28;20242;-78
2023/01/22 15:00:32;;;;;;;3.27;1.80;;;;;;;;;;4962771;28;20227;-78
2023/01/22 15:03:00;;;;;;;3.67;2.60;;;;;;;;;;4956978;28;20293;-78
2023/01/22 15:05:28;;;;;;;2.53;1.50;;;;;;;;;;4948132;28;20233;-76
2023/01/22 15:07:54;;;;;;;4.47;2.97;;;;;;;;;;4948838;28;20239;-80
2023/01/22 15:10:22;;;;;;;2.03;1.80;;;;;;;;;;4954575;28;20222;-78
2023/01/22 15:12:49;;;;;;;3.23;1.77;;;;;;;;;;4967627;28;20222;-77
2023/01/22 15:15:25;;;;;;;2.50;2.00;;;;;;;;;;4959052;28;20765;-77
2023/01/22 15:17:55;;;;;;;2.17;1.67;;;;;;;;;;4938303;28;20251;-77
2023/01/22 15:20:23;;;;;;;4.00;1.57;;;;;;;;;;4962900;28;20234;-75
2023/01/22 15:22:53;;;;;;;2.83;1.60;;;;;;;;;;4961454;28;20223;-76
2023/01/22 15:25:22;;;;;;;3.17;2.07;;;;;;;;;;4961276;28;20293;-76
2023/01/22 15:27:52;;;;;;;1.87;1.50;;;;;;;;;;4919652;29;20219;-77
2023/01/22 15:30:25;;;;;;;3.63;2.10;;;;;;;;;;4933081;28;20218;-76